sensor_id;sensor_type;location;lat;lon;timestamp;P1;durP1;ratioP1;P2;durP2;ratioP2
22191;SDS011;11261;52.456;10.850;2024-01-30T00:00:00;9.60;;;5.07;;
22191;SDS011;11261;52.456;10.850;2024-01-30T00:02:30;9.02;;;5.07;;
22191;SDS011;11261;52.456;10.850;2024-01-30T00:05:00;11.30;;;4.90;;
22191;SDS011;11261;52.456;10.850;2024-01-30T00:07:30;7.88;;;4.75;;
22191;SDS011;11261;52.456;10.850;2024-01-30T00:09:59;8.35;;;4.97;;
22191;SDS011;11261;52.456;10.850;2024-01-30T00:12:28;8.57;;;4.63;;
22191;SDS011;11261;52.456;10.850;2024-01-30T00:14:57;7.72;;;4.43;;
22191;SDS011;11261;52.456;10.850;2024-01-30T00:17:26;7.28;;;4.10;;
22191;SDS011;11261;52.456;10.850;2024-01-30T00:19:55;8.02;;;4.75;;
22191;SDS011;11261;52.456;10.850;2024-01-30T00:22:26;8.88;;;4.65;;
22191;SDS011;11261;52.456;10.850;2024-01-30T00:24:56;10.93;;;5.45;;
22191;SDS011;11261;52.456;10.850;2024-01-30T00:27:26;9.68;;;5.05;;
22191;SDS011;11261;52.456;10.850;2024-01-30T00:29:55;9.57;;;5.30;;
22191;SDS011;11261;52.456;10.850;2024-01-30T00:32:24;7.75;;;4.75;;
22191;SDS011;11261;52.456;10.850;2024-01-30T00:34:52;15.75;;;8.82;;
22191;SDS011;11261;52.456;10.850;2024-01-30T00:37:21;17.52;;;9.45;;
22191;SDS011;11261;52.456;10.850;2024-01-30T00:39:51;15.57;;;8.05;;
22191;SDS011;11261;52.456;10.850;2024-01-30T00:42:20;17.70;;;8.48;;
22191;SDS011;11261;52.456;10.850;2024-01-30T00:44:50;17.38;;;6.30;;
22191;SDS011;11261;52.456;10.850;2024-01-30T00:47:19;8.77;;;4.50;;
22191;SDS011;11261;52.456;10.850;2024-01-30T00:49:47;10.27;;;4.70;;
22191;SDS011;11261;52.456;10.850;2024-01-30T00:52:16;7.93;;;4.32;;
22191;SDS011;11261;52.456;10.850;2024-01-30T00:54:45;7.78;;;4.75;;
22191;SDS011;11261;52.456;10.850;2024-01-30T00:57:15;10.52;;;5.40;;
22191;SDS011;11261;52.456;10.850;2024-01-30T00:59:44;11.05;;;4.53;;
22191;SDS011;11261;52.456;10.850;2024-01-30T01:02:12;9.05;;;4.03;;
22191;SDS011;11261;52.456;10.850;2024-01-30T01:04:43;8.10;;;4.40;;
22191;SDS011;11261;52.456;10.850;2024-01-30T01:07:12;7.05;;;4.55;;
22191;SDS011;11261;52.456;10.850;2024-01-30T01:09:41;8.10;;;3.85;;
22191;SDS011;11261;52.456;10.850;2024-01-30T01:12:09;8.32;;;4.20;;
22191;SDS011;11261;52.456;10.850;2024-01-30T01:14:39;8.90;;;4.00;;
22191;SDS011;11261;52.456;10.850;2024-01-30T01:17:08;5.95;;;3.88;;
22191;SDS011;11261;52.456;10.850;2024-01-30T01:19:37;7.97;;;3.92;;
22191;SDS011;11261;52.456;10.850;2024-01-30T01:22:06;7.63;;;3.80;;
22191;SDS011;11261;52.456;10.850;2024-01-30T01:24:35;7.85;;;4.18;;
22191;SDS011;11261;52.456;10.850;2024-01-30T01:27:04;8.38;;;3.63;;
22191;SDS011;11261;52.456;10.850;2024-01-30T01:29:33;7.60;;;3.83;;
22191;SDS011;11261;52.456;10.850;2024-01-30T01:32:03;5.47;;;3.60;;
22191;SDS011;11261;52.456;10.850;2024-01-30T01:34:32;8.15;;;4.07;;
22191;SDS011;11261;52.456;10.850;2024-01-30T01:37:01;7.82;;;3.63;;
22191;SDS011;11261;52.456;10.850;2024-01-30T01:39:30;6.03;;;3.47;;
22191;SDS011;11261;52.456;10.850;2024-01-30T01:41:58;6.07;;;3.70;;
22191;SDS011;11261;52.456;10.850;2024-01-30T01:44:27;7.35;;;3.78;;
22191;SDS011;11261;52.456;10.850;2024-01-30T01:46:56;6.97;;;3.47;;
22191;SDS011;11261;52.456;10.850;2024-01-30T01:49:27;4.68;;;3.13;;
22191;SDS011;11261;52.456;10.850;2024-01-30T01:51:56;5.03;;;3.25;;
22191;SDS011;11261;52.456;10.850;2024-01-30T01:54:25;5.25;;;3.63;;
22191;SDS011;11261;52.456;10.850;2024-01-30T01:56:54;6.15;;;3.35;;
22191;SDS011;11261;52.456;10.850;2024-01-30T01:59:23;5.13;;;3.35;;
22191;SDS011;11261;52.456;10.850;2024-01-30T02:01:54;5.70;;;3.13;;
22191;SDS011;11261;52.456;10.850;2024-01-30T02:04:25;6.25;;;3.45;;
22191;SDS011;11261;52.456;10.850;2024-01-30T02:06:54;6.43;;;3.53;;
22191;SDS011;11261;52.456;10.850;2024-01-30T02:09:23;6.30;;;3.75;;
22191;SDS011;11261;52.456;10.850;2024-01-30T02:11:52;8.35;;;3.47;;
22191;SDS011;11261;52.456;10.850;2024-01-30T02:14:20;5.15;;;3.33;;
22191;SDS011;11261;52.456;10.850;2024-01-30T02:16:49;7.88;;;4.05;;
22191;SDS011;11261;52.456;10.850;2024-01-30T02:19:18;6.45;;;3.38;;
22191;SDS011;11261;52.456;10.850;2024-01-30T02:21:48;6.03;;;3.63;;
22191;SDS011;11261;52.456;10.850;2024-01-30T02:24:18;7.05;;;3.70;;
22191;SDS011;11261;52.456;10.850;2024-01-30T02:26:47;6.85;;;3.42;;
22191;SDS011;11261;52.456;10.850;2024-01-30T02:29:15;6.30;;;3.65;;
22191;SDS011;11261;52.456;10.850;2024-01-30T02:31:44;9.15;;;3.53;;
22191;SDS011;11261;52.456;10.850;2024-01-30T02:34:13;6.03;;;3.58;;
22191;SDS011;11261;52.456;10.850;2024-01-30T02:36:42;6.72;;;3.83;;
22191;SDS011;11261;52.456;10.850;2024-01-30T02:39:12;6.07;;;3.60;;
22191;SDS011;11261;52.456;10.850;2024-01-30T02:41:41;5.07;;;3.38;;
22191;SDS011;11261;52.456;10.850;2024-01-30T02:44:10;8.82;;;4.00;;
22191;SDS011;11261;52.456;10.850;2024-01-30T02:46:38;7.38;;;3.58;;
22191;SDS011;11261;52.456;10.850;2024-01-30T02:49:07;6.50;;;3.95;;
22191;SDS011;11261;52.456;10.850;2024-01-30T02:51:36;6.80;;;3.60;;
22191;SDS011;11261;52.456;10.850;2024-01-30T02:54:05;8.23;;;3.58;;
22191;SDS011;11261;52.456;10.850;2024-01-30T02:56:34;6.65;;;3.35;;
22191;SDS011;11261;52.456;10.850;2024-01-30T02:59:03;5.63;;;3.20;;
22191;SDS011;11261;52.456;10.850;2024-01-30T03:01:31;8.00;;;3.60;;
22191;SDS011;11261;52.456;10.850;2024-01-30T03:04:00;6.53;;;3.30;;
22191;SDS011;11261;52.456;10.850;2024-01-30T03:06:28;4.63;;;3.05;;
22191;SDS011;11261;52.456;10.850;2024-01-30T03:08:57;8.10;;;3.58;;
22191;SDS011;11261;52.456;10.850;2024-01-30T03:11:25;9.02;;;3.50;;
22191;SDS011;11261;52.456;10.850;2024-01-30T03:13:55;6.45;;;3.88;;
22191;SDS011;11261;52.456;10.850;2024-01-30T03:16:24;7.43;;;3.40;;
22191;SDS011;11261;52.456;10.850;2024-01-30T03:18:52;6.03;;;3.40;;
22191;SDS011;11261;52.456;10.850;2024-01-30T03:21:22;6.57;;;3.15;;
22191;SDS011;11261;52.456;10.850;2024-01-30T03:23:51;6.55;;;3.10;;
22191;SDS011;11261;52.456;10.850;2024-01-30T03:26:19;6.38;;;3.50;;
22191;SDS011;11261;52.456;10.850;2024-01-30T03:28:48;4.63;;;3.13;;
22191;SDS011;11261;52.456;10.850;2024-01-30T03:31:18;3.08;;;2.63;;
22191;SDS011;11261;52.456;10.850;2024-01-30T03:33:47;8.02;;;3.10;;
22191;SDS011;11261;52.456;10.850;2024-01-30T03:36:16;6.72;;;3.40;;
22191;SDS011;11261;52.456;10.850;2024-01-30T03:38:45;6.05;;;3.53;;
22191;SDS011;11261;52.456;10.850;2024-01-30T03:41:13;14.85;;;5.95;;
22191;SDS011;11261;52.456;10.850;2024-01-30T03:43:42;13.60;;;5.72;;
22191;SDS011;11261;52.456;10.850;2024-01-30T03:46:11;17.70;;;8.15;;
22191;SDS011;11261;52.456;10.850;2024-01-30T03:48:41;19.60;;;7.78;;
22191;SDS011;11261;52.456;10.850;2024-01-30T03:51:10;20.17;;;7.13;;
22191;SDS011;11261;52.456;10.850;2024-01-30T03:53:41;19.42;;;8.25;;
22191;SDS011;11261;52.456;10.850;2024-01-30T03:56:09;13.45;;;6.80;;
22191;SDS011;11261;52.456;10.850;2024-01-30T03:58:39;13.07;;;6.18;;
22191;SDS011;11261;52.456;10.850;2024-01-30T04:01:12;13.77;;;5.25;;
22191;SDS011;11261;52.456;10.850;2024-01-30T04:03:42;12.95;;;5.43;;
22191;SDS011;11261;52.456;10.850;2024-01-30T04:06:12;10.43;;;4.72;;
22191;SDS011;11261;52.456;10.850;2024-01-30T04:08:40;9.50;;;4.25;;
22191;SDS011;11261;52.456;10.850;2024-01-30T04:11:09;7.35;;;3.90;;
22191;SDS011;11261;52.456;10.850;2024-01-30T04:13:37;8.93;;;3.70;;
22191;SDS011;11261;52.456;10.850;2024-01-30T04:16:06;6.22;;;3.35;;
22191;SDS011;11261;52.456;10.850;2024-01-30T04:18:35;8.38;;;3.47;;
22191;SDS011;11261;52.456;10.850;2024-01-30T04:21:05;5.13;;;3.00;;
22191;SDS011;11261;52.456;10.850;2024-01-30T04:23:33;5.95;;;2.65;;
22191;SDS011;11261;52.456;10.850;2024-01-30T04:26:03;4.70;;;3.00;;
22191;SDS011;11261;52.456;10.850;2024-01-30T04:28:31;6.07;;;3.40;;
22191;SDS011;11261;52.456;10.850;2024-01-30T04:31:00;7.07;;;3.25;;
22191;SDS011;11261;52.456;10.850;2024-01-30T04:33:29;4.53;;;2.58;;
22191;SDS011;11261;52.456;10.850;2024-01-30T04:35:57;5.28;;;3.15;;
22191;SDS011;11261;52.456;10.850;2024-01-30T04:38:28;5.03;;;3.08;;
22191;SDS011;11261;52.456;10.850;2024-01-30T04:40:56;5.20;;;2.83;;
22191;SDS011;11261;52.456;10.850;2024-01-30T04:43:25;4.50;;;2.67;;
22191;SDS011;11261;52.456;10.850;2024-01-30T04:45:54;4.93;;;2.65;;
22191;SDS011;11261;52.456;10.850;2024-01-30T04:48:23;3.75;;;2.47;;
22191;SDS011;11261;52.456;10.850;2024-01-30T04:50:52;7.70;;;3.03;;
22191;SDS011;11261;52.456;10.850;2024-01-30T04:53:21;4.38;;;2.72;;
22191;SDS011;11261;52.456;10.850;2024-01-30T04:55:51;5.22;;;2.53;;
22191;SDS011;11261;52.456;10.850;2024-01-30T04:58:20;3.80;;;2.40;;
22191;SDS011;11261;52.456;10.850;2024-01-30T05:00:49;5.63;;;3.47;;
22191;SDS011;11261;52.456;10.850;2024-01-30T05:03:18;5.47;;;3.22;;
22191;SDS011;11261;52.456;10.850;2024-01-30T05:05:49;5.75;;;3.85;;
22191;SDS011;11261;52.456;10.850;2024-01-30T05:08:18;9.40;;;3.88;;
22191;SDS011;11261;52.456;10.850;2024-01-30T05:10:47;7.45;;;3.95;;
22191;SDS011;11261;52.456;10.850;2024-01-30T05:13:17;8.60;;;3.42;;
22191;SDS011;11261;52.456;10.850;2024-01-30T05:15:45;7.45;;;4.28;;
22191;SDS011;11261;52.456;10.850;2024-01-30T05:18:14;5.70;;;3.65;;
22191;SDS011;11261;52.456;10.850;2024-01-30T05:20:43;6.25;;;3.72;;
22191;SDS011;11261;52.456;10.850;2024-01-30T05:23:12;8.68;;;4.13;;
22191;SDS011;11261;52.456;10.850;2024-01-30T05:25:40;6.32;;;3.95;;
22191;SDS011;11261;52.456;10.850;2024-01-30T05:28:09;7.05;;;3.95;;
22191;SDS011;11261;52.456;10.850;2024-01-30T05:30:39;8.00;;;3.92;;
22191;SDS011;11261;52.456;10.850;2024-01-30T05:33:07;7.30;;;4.05;;
22191;SDS011;11261;52.456;10.850;2024-01-30T05:35:38;9.68;;;4.65;;
22191;SDS011;11261;52.456;10.850;2024-01-30T05:38:07;6.20;;;3.38;;
22191;SDS011;11261;52.456;10.850;2024-01-30T05:40:36;7.00;;;3.65;;
22191;SDS011;11261;52.456;10.850;2024-01-30T05:43:04;6.03;;;3.85;;
22191;SDS011;11261;52.456;10.850;2024-01-30T05:45:34;9.85;;;3.20;;
22191;SDS011;11261;52.456;10.850;2024-01-30T05:48:05;8.15;;;4.10;;
22191;SDS011;11261;52.456;10.850;2024-01-30T05:50:33;7.68;;;4.75;;
22191;SDS011;11261;52.456;10.850;2024-01-30T05:53:02;12.40;;;5.65;;
22191;SDS011;11261;52.456;10.850;2024-01-30T05:55:31;7.18;;;4.82;;
22191;SDS011;11261;52.456;10.850;2024-01-30T05:58:00;7.40;;;4.47;;
22191;SDS011;11261;52.456;10.850;2024-01-30T06:00:28;8.73;;;4.80;;
22191;SDS011;11261;52.456;10.850;2024-01-30T06:02:57;6.18;;;3.78;;
22191;SDS011;11261;52.456;10.850;2024-01-30T06:05:27;5.35;;;3.75;;
22191;SDS011;11261;52.456;10.850;2024-01-30T06:07:56;6.68;;;4.03;;
22191;SDS011;11261;52.456;10.850;2024-01-30T06:10:24;7.65;;;4.75;;
22191;SDS011;11261;52.456;10.850;2024-01-30T06:12:53;7.25;;;4.45;;
22191;SDS011;11261;52.456;10.850;2024-01-30T06:15:21;9.40;;;4.07;;
22191;SDS011;11261;52.456;10.850;2024-01-30T06:17:50;6.55;;;3.85;;
22191;SDS011;11261;52.456;10.850;2024-01-30T06:20:19;5.70;;;3.78;;
22191;SDS011;11261;52.456;10.850;2024-01-30T06:22:49;9.95;;;4.35;;
22191;SDS011;11261;52.456;10.850;2024-01-30T06:25:18;6.85;;;3.97;;
22191;SDS011;11261;52.456;10.850;2024-01-30T06:27:47;10.15;;;3.30;;
22191;SDS011;11261;52.456;10.850;2024-01-30T06:30:15;7.38;;;3.85;;
22191;SDS011;11261;52.456;10.850;2024-01-30T06:32:44;7.68;;;4.22;;
22191;SDS011;11261;52.456;10.850;2024-01-30T06:35:13;9.90;;;4.50;;
22191;SDS011;11261;52.456;10.850;2024-01-30T06:37:42;7.40;;;4.22;;
22191;SDS011;11261;52.456;10.850;2024-01-30T06:40:12;6.60;;;4.03;;
22191;SDS011;11261;52.456;10.850;2024-01-30T06:42:41;10.77;;;4.30;;
22191;SDS011;11261;52.456;10.850;2024-01-30T06:45:10;5.93;;;3.95;;
22191;SDS011;11261;52.456;10.850;2024-01-30T06:47:38;12.90;;;3.75;;
22191;SDS011;11261;52.456;10.850;2024-01-30T06:50:07;8.63;;;4.68;;
22191;SDS011;11261;52.456;10.850;2024-01-30T06:52:36;11.38;;;5.63;;
22191;SDS011;11261;52.456;10.850;2024-01-30T06:55:05;12.40;;;7.30;;
22191;SDS011;11261;52.456;10.850;2024-01-30T06:57:35;14.15;;;7.13;;
22191;SDS011;11261;52.456;10.850;2024-01-30T07:00:05;10.93;;;5.50;;
22191;SDS011;11261;52.456;10.850;2024-01-30T07:02:33;12.07;;;6.68;;
22191;SDS011;11261;52.456;10.850;2024-01-30T07:05:03;16.58;;;7.20;;
22191;SDS011;11261;52.456;10.850;2024-01-30T07:07:32;12.10;;;7.05;;
22191;SDS011;11261;52.456;10.850;2024-01-30T07:10:00;12.35;;;7.38;;
22191;SDS011;11261;52.456;10.850;2024-01-30T07:12:30;15.25;;;7.30;;
22191;SDS011;11261;52.456;10.850;2024-01-30T07:15:00;18.67;;;10.38;;
22191;SDS011;11261;52.456;10.850;2024-01-30T07:17:29;25.35;;;15.13;;
22191;SDS011;11261;52.456;10.850;2024-01-30T07:19:58;21.38;;;12.48;;
22191;SDS011;11261;52.456;10.850;2024-01-30T07:22:27;19.52;;;12.18;;
22191;SDS011;11261;52.456;10.850;2024-01-30T07:24:56;21.48;;;13.57;;
22191;SDS011;11261;52.456;10.850;2024-01-30T07:27:25;23.77;;;14.82;;
22191;SDS011;11261;52.456;10.850;2024-01-30T07:29:53;20.45;;;12.95;;
22191;SDS011;11261;52.456;10.850;2024-01-30T07:32:23;12.90;;;10.02;;
22191;SDS011;11261;52.456;10.850;2024-01-30T07:34:52;12.48;;;8.35;;
22191;SDS011;11261;52.456;10.850;2024-01-30T07:37:33;12.52;;;9.40;;
22191;SDS011;11261;52.456;10.850;2024-01-30T07:40:02;16.05;;;8.40;;
22191;SDS011;11261;52.456;10.850;2024-01-30T07:42:31;12.90;;;8.07;;
22191;SDS011;11261;52.456;10.850;2024-01-30T07:45:00;11.45;;;8.18;;
22191;SDS011;11261;52.456;10.850;2024-01-30T07:47:30;12.93;;;8.07;;
22191;SDS011;11261;52.456;10.850;2024-01-30T07:49:59;12.27;;;8.20;;
22191;SDS011;11261;52.456;10.850;2024-01-30T07:52:28;11.18;;;7.25;;
22191;SDS011;11261;52.456;10.850;2024-01-30T07:54:56;12.70;;;7.38;;
22191;SDS011;11261;52.456;10.850;2024-01-30T07:57:25;13.82;;;7.30;;
22191;SDS011;11261;52.456;10.850;2024-01-30T07:59:54;11.27;;;6.82;;
22191;SDS011;11261;52.456;10.850;2024-01-30T08:02:24;12.73;;;7.80;;
22191;SDS011;11261;52.456;10.850;2024-01-30T08:04:54;12.52;;;7.22;;
22191;SDS011;11261;52.456;10.850;2024-01-30T08:07:22;11.85;;;6.40;;
22191;SDS011;11261;52.456;10.850;2024-01-30T08:09:51;8.30;;;5.35;;
22191;SDS011;11261;52.456;10.850;2024-01-30T08:12:20;9.98;;;6.55;;
22191;SDS011;11261;52.456;10.850;2024-01-30T08:14:49;14.15;;;8.27;;
22191;SDS011;11261;52.456;10.850;2024-01-30T08:17:17;15.80;;;9.88;;
22191;SDS011;11261;52.456;10.850;2024-01-30T08:19:46;13.88;;;8.30;;
22191;SDS011;11261;52.456;10.850;2024-01-30T08:22:16;12.77;;;6.90;;
22191;SDS011;11261;52.456;10.850;2024-01-30T08:24:45;10.52;;;6.40;;
22191;SDS011;11261;52.456;10.850;2024-01-30T08:27:13;11.82;;;5.95;;
22191;SDS011;11261;52.456;10.850;2024-01-30T08:29:42;10.70;;;5.85;;
22191;SDS011;11261;52.456;10.850;2024-01-30T08:32:11;11.15;;;6.45;;
22191;SDS011;11261;52.456;10.850;2024-01-30T08:34:39;24.85;;;11.38;;
22191;SDS011;11261;52.456;10.850;2024-01-30T08:37:09;54.28;;;24.30;;
22191;SDS011;11261;52.456;10.850;2024-01-30T08:39:39;33.85;;;17.23;;
22191;SDS011;11261;52.456;10.850;2024-01-30T08:42:08;20.80;;;12.43;;
22191;SDS011;11261;52.456;10.850;2024-01-30T08:44:36;15.05;;;9.73;;
22191;SDS011;11261;52.456;10.850;2024-01-30T08:47:06;15.77;;;10.45;;
22191;SDS011;11261;52.456;10.850;2024-01-30T08:49:35;14.45;;;9.50;;
22191;SDS011;11261;52.456;10.850;2024-01-30T08:52:03;14.18;;;10.15;;
22191;SDS011;11261;52.456;10.850;2024-01-30T08:54:33;11.57;;;8.25;;
22191;SDS011;11261;52.456;10.850;2024-01-30T08:57:04;13.57;;;8.98;;
22191;SDS011;11261;52.456;10.850;2024-01-30T08:59:32;10.75;;;7.53;;
22191;SDS011;11261;52.456;10.850;2024-01-30T09:02:01;13.48;;;8.32;;
22191;SDS011;11261;52.456;10.850;2024-01-30T09:04:38;11.45;;;7.80;;
22191;SDS011;11261;52.456;10.850;2024-01-30T09:07:08;11.80;;;7.38;;
22191;SDS011;11261;52.456;10.850;2024-01-30T09:09:38;11.20;;;7.22;;
22191;SDS011;11261;52.456;10.850;2024-01-30T09:12:09;9.25;;;6.60;;
22191;SDS011;11261;52.456;10.850;2024-01-30T09:14:39;10.48;;;6.47;;
22191;SDS011;11261;52.456;10.850;2024-01-30T09:17:08;10.00;;;6.68;;
22191;SDS011;11261;52.456;10.850;2024-01-30T09:19:37;9.57;;;6.50;;
22191;SDS011;11261;52.456;10.850;2024-01-30T09:22:05;13.10;;;7.88;;
22191;SDS011;11261;52.456;10.850;2024-01-30T09:24:34;19.42;;;10.13;;
22191;SDS011;11261;52.456;10.850;2024-01-30T09:27:03;20.77;;;11.00;;
22191;SDS011;11261;52.456;10.850;2024-01-30T09:29:33;22.77;;;12.95;;
22191;SDS011;11261;52.456;10.850;2024-01-30T09:32:04;22.20;;;13.02;;
22191;SDS011;11261;52.456;10.850;2024-01-30T09:34:33;24.98;;;13.20;;
22191;SDS011;11261;52.456;10.850;2024-01-30T09:37:02;34.65;;;15.63;;
22191;SDS011;11261;52.456;10.850;2024-01-30T09:39:31;23.88;;;13.25;;
22191;SDS011;11261;52.456;10.850;2024-01-30T09:42:01;24.25;;;13.65;;
22191;SDS011;11261;52.456;10.850;2024-01-30T09:44:30;36.55;;;20.02;;
22191;SDS011;11261;52.456;10.850;2024-01-30T09:47:01;29.02;;;14.68;;
22191;SDS011;11261;52.456;10.850;2024-01-30T09:49:32;16.00;;;9.90;;
22191;SDS011;11261;52.456;10.850;2024-01-30T09:52:02;14.02;;;8.93;;
22191;SDS011;11261;52.456;10.850;2024-01-30T09:54:31;15.90;;;9.13;;
22191;SDS011;11261;52.456;10.850;2024-01-30T09:57:02;21.15;;;11.57;;
22191;SDS011;11261;52.456;10.850;2024-01-30T09:59:31;17.05;;;10.82;;
22191;SDS011;11261;52.456;10.850;2024-01-30T10:02:01;14.02;;;8.82;;
22191;SDS011;11261;52.456;10.850;2024-01-30T10:04:31;15.20;;;9.60;;
22191;SDS011;11261;52.456;10.850;2024-01-30T10:07:01;13.90;;;7.35;;
22191;SDS011;11261;52.456;10.850;2024-01-30T10:09:31;8.25;;;5.43;;
22191;SDS011;11261;52.456;10.850;2024-01-30T10:12:01;11.25;;;6.60;;
22191;SDS011;11261;52.456;10.850;2024-01-30T10:14:31;11.43;;;6.53;;
22191;SDS011;11261;52.456;10.850;2024-01-30T10:17:02;8.95;;;6.32;;
22191;SDS011;11261;52.456;10.850;2024-01-30T10:19:43;9.55;;;6.88;;
22191;SDS011;11261;52.456;10.850;2024-01-30T10:22:11;10.55;;;6.70;;
22191;SDS011;11261;52.456;10.850;2024-01-30T10:24:40;11.07;;;7.00;;
22191;SDS011;11261;52.456;10.850;2024-01-30T10:27:08;11.38;;;6.50;;
22191;SDS011;11261;52.456;10.850;2024-01-30T10:29:38;8.60;;;6.47;;
22191;SDS011;11261;52.456;10.850;2024-01-30T10:32:08;10.52;;;6.18;;
22191;SDS011;11261;52.456;10.850;2024-01-30T10:34:36;11.52;;;6.90;;
22191;SDS011;11261;52.456;10.850;2024-01-30T10:37:07;11.48;;;6.13;;
22191;SDS011;11261;52.456;10.850;2024-01-30T10:39:39;8.68;;;5.28;;
22191;SDS011;11261;52.456;10.850;2024-01-30T10:42:11;19.73;;;10.15;;
22191;SDS011;11261;52.456;10.850;2024-01-30T10:44:44;8.52;;;5.20;;
22191;SDS011;11261;52.456;10.850;2024-01-30T10:47:14;9.80;;;5.35;;
22191;SDS011;11261;52.456;10.850;2024-01-30T10:49:46;5.32;;;3.20;;
22191;SDS011;11261;52.456;10.850;2024-01-30T10:52:15;10.07;;;4.57;;
22191;SDS011;11261;52.456;10.850;2024-01-30T10:54:45;8.02;;;4.47;;
22191;SDS011;11261;52.456;10.850;2024-01-30T10:57:14;7.38;;;4.32;;
22191;SDS011;11261;52.456;10.850;2024-01-30T10:59:44;9.52;;;3.95;;
22191;SDS011;11261;52.456;10.850;2024-01-30T11:02:14;7.30;;;4.22;;
22191;SDS011;11261;52.456;10.850;2024-01-30T11:04:43;8.75;;;4.70;;
22191;SDS011;11261;52.456;10.850;2024-01-30T11:07:15;7.18;;;4.05;;
22191;SDS011;11261;52.456;10.850;2024-01-30T11:09:50;6.28;;;4.43;;
22191;SDS011;11261;52.456;10.850;2024-01-30T11:12:21;12.50;;;4.63;;
22191;SDS011;11261;52.456;10.850;2024-01-30T11:14:50;8.85;;;5.07;;
22191;SDS011;11261;52.456;10.850;2024-01-30T11:17:40;7.75;;;4.43;;
22191;SDS011;11261;52.456;10.850;2024-01-30T11:20:10;7.95;;;4.72;;
22191;SDS011;11261;52.456;10.850;2024-01-30T11:22:41;9.40;;;4.65;;
22191;SDS011;11261;52.456;10.850;2024-01-30T11:25:12;6.32;;;4.05;;
22191;SDS011;11261;52.456;10.850;2024-01-30T11:27:41;9.85;;;4.70;;
22191;SDS011;11261;52.456;10.850;2024-01-30T11:30:10;7.18;;;4.53;;
22191;SDS011;11261;52.456;10.850;2024-01-30T11:32:41;11.27;;;4.65;;
22191;SDS011;11261;52.456;10.850;2024-01-30T11:35:10;7.80;;;4.25;;
22191;SDS011;11261;52.456;10.850;2024-01-30T11:37:39;8.32;;;4.35;;
22191;SDS011;11261;52.456;10.850;2024-01-30T11:40:08;7.95;;;5.10;;
22191;SDS011;11261;52.456;10.850;2024-01-30T11:42:37;8.27;;;3.80;;
22191;SDS011;11261;52.456;10.850;2024-01-30T11:45:06;9.40;;;4.80;;
22191;SDS011;11261;52.456;10.850;2024-01-30T11:47:35;9.02;;;4.55;;
22191;SDS011;11261;52.456;10.850;2024-01-30T11:50:11;9.50;;;4.05;;
22191;SDS011;11261;52.456;10.850;2024-01-30T11:52:41;8.65;;;4.22;;
22191;SDS011;11261;52.456;10.850;2024-01-30T11:55:10;8.13;;;4.72;;
22191;SDS011;11261;52.456;10.850;2024-01-30T11:57:39;6.35;;;3.75;;
22191;SDS011;11261;52.456;10.850;2024-01-30T12:00:13;12.52;;;4.88;;
22191;SDS011;11261;52.456;10.850;2024-01-30T12:02:43;8.88;;;4.38;;
22191;SDS011;11261;52.456;10.850;2024-01-30T12:05:13;8.07;;;4.68;;
22191;SDS011;11261;52.456;10.850;2024-01-30T12:07:43;8.82;;;4.50;;
22191;SDS011;11261;52.456;10.850;2024-01-30T12:10:13;9.80;;;4.97;;
22191;SDS011;11261;52.456;10.850;2024-01-30T12:12:43;13.43;;;3.92;;
22191;SDS011;11261;52.456;10.850;2024-01-30T12:15:12;6.03;;;3.33;;
22191;SDS011;11261;52.456;10.850;2024-01-30T12:17:41;6.93;;;4.30;;
22191;SDS011;11261;52.456;10.850;2024-01-30T12:20:10;9.07;;;4.40;;
22191;SDS011;11261;52.456;10.850;2024-01-30T12:22:42;9.10;;;4.82;;
22191;SDS011;11261;52.456;10.850;2024-01-30T12:25:11;8.30;;;4.38;;
22191;SDS011;11261;52.456;10.850;2024-01-30T12:27:42;9.35;;;4.57;;
22191;SDS011;11261;52.456;10.850;2024-01-30T12:30:11;6.95;;;4.30;;
22191;SDS011;11261;52.456;10.850;2024-01-30T12:32:41;7.68;;;4.68;;
22191;SDS011;11261;52.456;10.850;2024-01-30T12:35:11;10.23;;;4.50;;
22191;SDS011;11261;52.456;10.850;2024-01-30T12:37:42;7.70;;;4.25;;
22191;SDS011;11261;52.456;10.850;2024-01-30T12:40:12;9.90;;;4.85;;
22191;SDS011;11261;52.456;10.850;2024-01-30T12:42:42;9.05;;;5.28;;
22191;SDS011;11261;52.456;10.850;2024-01-30T12:45:13;9.30;;;4.30;;
22191;SDS011;11261;52.456;10.850;2024-01-30T12:47:42;11.10;;;4.78;;
22191;SDS011;11261;52.456;10.850;2024-01-30T12:50:11;10.65;;;3.90;;
22191;SDS011;11261;52.456;10.850;2024-01-30T12:52:44;11.90;;;4.45;;
22191;SDS011;11261;52.456;10.850;2024-01-30T12:55:15;8.23;;;5.00;;
22191;SDS011;11261;52.456;10.850;2024-01-30T12:57:45;7.70;;;4.35;;
22191;SDS011;11261;52.456;10.850;2024-01-30T13:00:13;9.23;;;4.40;;
22191;SDS011;11261;52.456;10.850;2024-01-30T13:02:44;7.57;;;4.50;;
22191;SDS011;11261;52.456;10.850;2024-01-30T13:05:12;8.25;;;4.38;;
22191;SDS011;11261;52.456;10.850;2024-01-30T13:07:41;10.00;;;4.65;;
22191;SDS011;11261;52.456;10.850;2024-01-30T13:10:12;10.63;;;5.55;;
22191;SDS011;11261;52.456;10.850;2024-01-30T13:12:40;9.55;;;4.78;;
22191;SDS011;11261;52.456;10.850;2024-01-30T13:15:09;10.20;;;4.35;;
22191;SDS011;11261;52.456;10.850;2024-01-30T13:17:38;10.45;;;4.28;;
22191;SDS011;11261;52.456;10.850;2024-01-30T13:20:09;10.20;;;4.47;;
22191;SDS011;11261;52.456;10.850;2024-01-30T13:22:39;8.90;;;4.80;;
22191;SDS011;11261;52.456;10.850;2024-01-30T13:25:12;7.53;;;4.47;;
22191;SDS011;11261;52.456;10.850;2024-01-30T13:27:41;9.40;;;4.25;;
22191;SDS011;11261;52.456;10.850;2024-01-30T13:30:09;9.55;;;4.35;;
22191;SDS011;11261;52.456;10.850;2024-01-30T13:32:38;6.80;;;4.95;;
22191;SDS011;11261;52.456;10.850;2024-01-30T13:35:08;9.20;;;4.28;;
22191;SDS011;11261;52.456;10.850;2024-01-30T13:37:37;9.65;;;4.35;;
22191;SDS011;11261;52.456;10.850;2024-01-30T13:40:06;5.85;;;3.90;;
22191;SDS011;11261;52.456;10.850;2024-01-30T13:42:41;5.43;;;3.67;;
22191;SDS011;11261;52.456;10.850;2024-01-30T13:45:09;6.68;;;3.97;;
22191;SDS011;11261;52.456;10.850;2024-01-30T13:47:38;5.00;;;3.80;;
22191;SDS011;11261;52.456;10.850;2024-01-30T13:50:06;6.88;;;4.18;;
22191;SDS011;11261;52.456;10.850;2024-01-30T13:52:37;7.80;;;4.15;;
22191;SDS011;11261;52.456;10.850;2024-01-30T13:55:10;5.15;;;3.40;;
22191;SDS011;11261;52.456;10.850;2024-01-30T13:57:41;6.57;;;3.65;;
22191;SDS011;11261;52.456;10.850;2024-01-30T14:00:10;6.10;;;3.78;;
22191;SDS011;11261;52.456;10.850;2024-01-30T14:02:42;7.40;;;4.07;;
22191;SDS011;11261;52.456;10.850;2024-01-30T14:05:11;8.45;;;4.30;;
22191;SDS011;11261;52.456;10.850;2024-01-30T14:07:41;9.75;;;4.30;;
22191;SDS011;11261;52.456;10.850;2024-01-30T14:10:11;5.55;;;4.07;;
22191;SDS011;11261;52.456;10.850;2024-01-30T14:12:43;5.68;;;3.95;;
22191;SDS011;11261;52.456;10.850;2024-01-30T14:15:11;10.90;;;4.47;;
22191;SDS011;11261;52.456;10.850;2024-01-30T14:17:53;5.78;;;4.10;;
22191;SDS011;11261;52.456;10.850;2024-01-30T14:20:24;8.70;;;3.85;;
22191;SDS011;11261;52.456;10.850;2024-01-30T14:22:53;7.95;;;4.20;;
22191;SDS011;11261;52.456;10.850;2024-01-30T14:25:23;9.80;;;3.90;;
22191;SDS011;11261;52.456;10.850;2024-01-30T14:27:54;6.70;;;4.25;;
22191;SDS011;11261;52.456;10.850;2024-01-30T14:30:22;4.72;;;3.10;;
22191;SDS011;11261;52.456;10.850;2024-01-30T14:32:51;7.25;;;3.33;;
22191;SDS011;11261;52.456;10.850;2024-01-30T14:35:20;6.65;;;4.30;;
22191;SDS011;11261;52.456;10.850;2024-01-30T14:37:48;4.10;;;3.05;;
22191;SDS011;11261;52.456;10.850;2024-01-30T14:40:17;9.63;;;4.45;;